San Francisco, California
Traffic Map
Current Weather Conditions
San Francisco, California
Broken Clouds
Broken Clouds
60°
Feels Like: 60°
Wind Chill: 60° Ceiling: 1200
Heat Index: 60° Visibility: 10mi
Dew Point: 55° Wind: 0mph
Humidity: 83% Direction: ° ()
Pressure: 29.92in Gusts: 0mph
Raw Report DataKSFO 191456Z 00000KT 10SM FEW007 SCT009 BKN012 16/13 A2992 RMK AO2 SLP131 T01560128 53005 $
Traffic Incident Summary
Active as of:
Severity:
Category:
InformationThere was an issue retrieving the traffic information for this location. Please try a different location or try again shortly.
Advertisements